createdAt,value
2022-11-11T00:00:03.926Z,-40
2022-11-11T00:01:03.882Z,-40
2022-11-11T00:02:03.872Z,-40
2022-11-11T00:03:03.861Z,-40
2022-11-11T00:04:03.854Z,-40
2022-11-11T00:05:03.845Z,-40
2022-11-11T00:06:03.852Z,-40
2022-11-11T00:07:03.816Z,-40
2022-11-11T00:08:03.808Z,-40
2022-11-11T00:09:03.798Z,-40
2022-11-11T00:10:03.817Z,-40
2022-11-11T00:11:03.773Z,-40
2022-11-11T00:12:03.764Z,-40
2022-11-11T00:13:03.757Z,-40
2022-11-11T00:14:03.780Z,-40
2022-11-11T00:15:03.730Z,-40
2022-11-11T00:16:03.744Z,-40
2022-11-11T00:17:03.723Z,-40
2022-11-11T00:18:03.694Z,-40
2022-11-11T00:19:03.689Z,-40
2022-11-11T00:20:03.679Z,-40
2022-11-11T00:21:03.666Z,-40
2022-11-11T00:22:03.653Z,-40
2022-11-11T00:23:03.663Z,-40
2022-11-11T00:24:03.650Z,-40
2022-11-11T00:25:03.623Z,-40
2022-11-11T00:26:03.631Z,-40
2022-11-11T00:27:03.598Z,-40
2022-11-11T00:28:03.590Z,-40
2022-11-11T00:29:03.582Z,-40
2022-11-11T00:30:03.568Z,-40
2022-11-11T00:31:03.561Z,-40
2022-11-11T00:32:03.546Z,-40
2022-11-11T00:33:03.533Z,-40
2022-11-11T00:34:03.520Z,-40
2022-11-11T00:35:03.517Z,-40
2022-11-11T00:36:03.500Z,-40
2022-11-11T00:37:03.490Z,-40
2022-11-11T00:38:03.500Z,-40
2022-11-11T00:39:03.473Z,-40
2022-11-11T00:40:03.484Z,-40
2022-11-11T00:41:03.446Z,-40
2022-11-11T00:42:03.436Z,-40
2022-11-11T00:43:03.430Z,-40
2022-11-11T00:44:03.417Z,-40
2022-11-11T00:45:03.404Z,-40
2022-11-11T00:46:03.391Z,-40
2022-11-11T00:47:03.380Z,-40
2022-11-11T00:48:03.380Z,-40
2022-11-11T00:49:03.370Z,-40
2022-11-11T00:50:03.351Z,-40
2022-11-11T00:51:03.337Z,-40
2022-11-11T00:52:03.337Z,-40
2022-11-11T00:53:03.328Z,-40
2022-11-11T00:54:03.318Z,-40
2022-11-11T00:55:03.312Z,-40
2022-11-11T00:56:03.280Z,-40
2022-11-11T00:57:03.278Z,-40
2022-11-11T00:58:03.264Z,-40
2022-11-11T00:59:03.257Z,-40
2022-11-11T01:00:03.271Z,-40
2022-11-11T01:01:03.230Z,-40
2022-11-11T01:02:03.220Z,-40
2022-11-11T01:03:03.217Z,-40
2022-11-11T01:04:10.773Z,-40
2022-11-11T01:05:03.189Z,-40
2022-11-11T01:06:10.759Z,-40
2022-11-11T01:07:10.732Z,-40
2022-11-11T01:08:03.163Z,-40
2022-11-11T01:09:10.717Z,-40
2022-11-11T01:11:36.076Z,16.01
2022-11-11T01:13:54.979Z,16.25
2022-11-11T01:14:54.955Z,16.01
2022-11-11T01:15:54.950Z,15.89
2022-11-11T01:16:54.938Z,15.99
2022-11-11T01:17:54.927Z,16.12
2022-11-11T01:18:54.920Z,16.23
2022-11-11T01:19:54.908Z,16.18
2022-11-11T01:20:54.897Z,16.25
2022-11-11T01:21:54.884Z,16.31
2022-11-11T01:22:54.874Z,16.07
2022-11-11T01:23:54.867Z,16.06
2022-11-11T01:24:54.846Z,15.99
2022-11-11T01:25:54.849Z,16
2022-11-11T01:26:54.845Z,15.99
2022-11-11T01:27:54.817Z,16.01
2022-11-11T01:28:54.817Z,16.06
2022-11-11T01:29:54.795Z,16.07
2022-11-11T01:30:54.798Z,16.04
2022-11-11T01:31:54.783Z,16
2022-11-11T01:32:54.767Z,15.94
2022-11-11T01:33:54.753Z,15.82
2022-11-11T01:34:54.740Z,15.86
2022-11-11T01:35:54.731Z,15.94
2022-11-11T01:36:54.731Z,15.88
2022-11-11T01:37:54.721Z,15.86
2022-11-11T01:38:54.701Z,15.82
2022-11-11T01:39:54.688Z,15.89
2022-11-11T01:40:54.681Z,15.85
2022-11-11T01:41:54.675Z,15.86
2022-11-11T01:42:54.665Z,15.96
2022-11-11T01:43:54.647Z,16.01
2022-11-11T01:44:54.634Z,15.94
2022-11-11T01:45:54.629Z,15.99
2022-11-11T01:46:54.617Z,15.92
2022-11-11T01:47:54.608Z,16.01
2022-11-11T01:48:54.604Z,15.86
2022-11-11T01:49:54.583Z,15.78
2022-11-11T01:50:54.572Z,15.81
2022-11-11T01:51:54.559Z,15.93
2022-11-11T01:52:54.550Z,16.01
2022-11-11T01:53:54.542Z,15.92
2022-11-11T01:54:54.533Z,16.06
2022-11-11T01:55:54.519Z,16.07
2022-11-11T01:56:54.524Z,16.07
2022-11-11T01:57:54.498Z,16.09
2022-11-11T01:58:54.486Z,15.94
2022-11-11T01:59:54.478Z,15.89
2022-11-11T02:00:54.481Z,16.01
2022-11-11T02:01:54.456Z,15.94
2022-11-11T02:02:54.446Z,16.09
2022-11-11T02:03:54.433Z,16.01
2022-11-11T02:04:54.423Z,16.11
2022-11-11T02:05:54.424Z,16.07
2022-11-11T02:06:54.401Z,15.97
2022-11-11T02:07:54.391Z,15.99
2022-11-11T02:08:54.406Z,15.99
2022-11-11T02:09:54.369Z,15.94
2022-11-11T02:10:54.363Z,16
2022-11-11T02:11:54.355Z,15.97
2022-11-11T02:12:54.353Z,15.94
2022-11-11T02:13:54.326Z,15.82
2022-11-11T02:14:54.314Z,15.82
2022-11-11T02:15:54.306Z,15.82
2022-11-11T02:16:54.297Z,15.82
2022-11-11T02:17:54.280Z,15.64
2022-11-11T02:18:54.269Z,15.64
2022-11-11T02:19:54.262Z,15.46
2022-11-11T02:20:54.251Z,15.46
2022-11-11T02:21:54.240Z,15.27
2022-11-11T02:22:54.227Z,15.35
2022-11-11T02:23:54.221Z,15.35
2022-11-11T02:24:54.210Z,15.31
2022-11-11T02:25:54.195Z,14.78
2022-11-11T02:26:54.188Z,14.61
2022-11-11T02:27:54.178Z,14.46
2022-11-11T02:28:54.177Z,-40
2022-11-11T02:29:54.152Z,-40
2022-11-11T02:30:54.145Z,-40
2022-11-11T02:31:54.129Z,-40
2022-11-11T02:32:54.122Z,-40
2022-11-11T02:33:54.112Z,-40
2022-11-11T02:34:54.110Z,-40
2022-11-11T02:35:54.086Z,-40
2022-11-11T02:36:54.099Z,-40
2022-11-11T02:37:54.067Z,-40
2022-11-11T02:38:54.055Z,-40
2022-11-11T02:39:54.052Z,-40
2022-11-11T02:40:54.034Z,-40
2022-11-11T02:41:54.088Z,-40
2022-11-11T02:42:54.010Z,-40
2022-11-11T02:43:54.005Z,-40
2022-11-11T02:44:54.009Z,-40
2022-11-11T02:45:53.993Z,-40
2022-11-11T02:46:53.971Z,-40
2022-11-11T02:47:53.954Z,-40
2022-11-11T02:48:53.951Z,-40
2022-11-11T02:49:53.934Z,-40
2022-11-11T02:50:53.929Z,-40
2022-11-11T02:51:53.925Z,-40
2022-11-11T02:52:53.910Z,-40
2022-11-11T02:53:53.889Z,-40
2022-11-11T02:54:53.877Z,-40
2022-11-11T02:55:53.868Z,-40
2022-11-11T02:56:53.856Z,-40
2022-11-11T02:57:53.852Z,-40
2022-11-11T02:58:53.840Z,-40
2022-11-11T02:59:53.845Z,-40
2022-11-11T03:00:53.813Z,-40
2022-11-11T03:01:53.811Z,-40
2022-11-11T03:02:53.796Z,-40
2022-11-11T03:03:53.809Z,-40
2022-11-11T03:04:53.772Z,-40
2022-11-11T03:05:53.760Z,-40
2022-11-11T03:06:53.754Z,-40
2022-11-11T03:07:53.745Z,-40
2022-11-11T03:08:53.740Z,-40
2022-11-11T03:09:53.730Z,-40
2022-11-11T03:10:53.714Z,-40
2022-11-11T03:11:53.701Z,-40
2022-11-11T03:12:53.687Z,-40
2022-11-11T03:13:53.690Z,-40
2022-11-11T03:14:53.671Z,-40
2022-11-11T03:15:53.656Z,-40
2022-11-11T03:16:53.646Z,-40
2022-11-11T03:17:53.637Z,-40
2022-11-11T03:18:53.629Z,-40
2022-11-11T03:19:53.623Z,-40
2022-11-11T03:20:53.598Z,-40
2022-11-11T03:21:53.594Z,-40
2022-11-11T03:22:53.590Z,-40
2022-11-11T03:23:53.567Z,-40
2022-11-11T03:24:53.581Z,-40
2022-11-11T03:25:53.548Z,-40
2022-11-11T03:26:53.562Z,-40
2022-11-11T03:27:53.533Z,-40
2022-11-11T03:28:53.513Z,-40
2022-11-11T03:29:53.509Z,-40
2022-11-11T03:30:53.497Z,-40
2022-11-11T03:31:53.486Z,-40
2022-11-11T03:32:53.479Z,-40
2022-11-11T03:33:53.471Z,-40
2022-11-11T03:34:53.448Z,-40
2022-11-11T03:35:53.464Z,-40
2022-11-11T03:36:53.444Z,-40
2022-11-11T03:37:53.428Z,-40
2022-11-11T03:38:53.409Z,-40
2022-11-11T03:39:53.417Z,-40
2022-11-11T03:40:53.382Z,-40
2022-11-11T03:41:53.380Z,-40
2022-11-11T03:42:53.364Z,-40
2022-11-11T03:43:53.352Z,-40
2022-11-11T03:44:53.344Z,-40
2022-11-11T03:45:53.331Z,-40
2022-11-11T03:46:53.326Z,-40
2022-11-11T03:47:53.311Z,-40
2022-11-11T03:48:53.299Z,-40
2022-11-11T03:49:53.301Z,-40
2022-11-11T03:50:53.279Z,-40
2022-11-11T03:51:53.264Z,-40
2022-11-11T03:52:53.256Z,-40
2022-11-11T03:53:53.247Z,-40
2022-11-11T03:54:53.234Z,-40
2022-11-11T03:55:53.229Z,-40
2022-11-11T03:56:53.217Z,-40
2022-11-11T03:57:53.231Z,-40
2022-11-11T03:58:53.189Z,-40
2022-11-11T03:59:53.177Z,-40
2022-11-11T04:00:53.176Z,-40
2022-11-11T04:01:53.157Z,-40
2022-11-11T04:02:53.160Z,-40
2022-11-11T04:03:53.135Z,-40
2022-11-11T04:04:53.131Z,-40
2022-11-11T04:05:53.114Z,-40
2022-11-11T04:06:53.110Z,-40
2022-11-11T04:07:53.095Z,-40
2022-11-11T04:08:53.102Z,-40
2022-11-11T04:09:53.082Z,-40
2022-11-11T04:10:53.058Z,-40
2022-11-11T04:11:53.052Z,-40
2022-11-11T04:12:53.040Z,-40
2022-11-11T04:13:53.034Z,-40
2022-11-11T04:14:53.036Z,-40
2022-11-11T04:15:53.002Z,-40
2022-11-11T04:16:52.992Z,-40
2022-11-11T04:17:52.982Z,-40
2022-11-11T04:18:52.980Z,-40
2022-11-11T04:19:52.962Z,-40
2022-11-11T04:20:52.973Z,-40
2022-11-11T04:22:01.554Z,-40
2022-11-11T04:23:00.511Z,-40
2022-11-11T04:24:00.487Z,-40
2022-11-11T04:24:52.910Z,-40
2022-11-11T04:25:52.904Z,-40
2022-11-11T04:26:52.905Z,-40
2022-11-11T04:27:52.874Z,-40
2022-11-11T04:28:52.864Z,-40
2022-11-11T04:29:52.859Z,-40
2022-11-11T04:30:52.864Z,-40
2022-11-11T04:31:52.846Z,-40
2022-11-11T04:32:52.830Z,-40
2022-11-11T04:33:52.808Z,-40
2022-11-11T04:34:52.798Z,-40
2022-11-11T04:35:52.792Z,-40
2022-11-11T04:36:52.785Z,-40
2022-11-11T04:38:00.422Z,-40
2022-11-11T04:38:52.755Z,-40
2022-11-11T04:39:52.787Z,-40
2022-11-11T04:40:52.753Z,-40
2022-11-11T04:41:52.757Z,-40
2022-11-11T04:42:52.709Z,-40
2022-11-11T04:43:52.703Z,-40
2022-11-11T04:44:52.699Z,-40
2022-11-11T04:45:52.700Z,-40
2022-11-11T04:46:52.672Z,-40
2022-11-11T04:47:52.666Z,-40
2022-11-11T04:48:52.659Z,-40
2022-11-11T04:49:52.649Z,-40
2022-11-11T04:50:52.635Z,-40
2022-11-11T04:51:52.621Z,-40
2022-11-11T04:52:52.604Z,-40
2022-11-11T04:53:52.625Z,-40
2022-11-11T04:54:52.589Z,-40
2022-11-11T04:55:52.587Z,-40
2022-11-11T04:56:52.580Z,-40
2022-11-11T04:57:52.563Z,-40
2022-11-11T04:58:52.569Z,-40
2022-11-11T04:59:52.534Z,-40
2022-11-11T05:00:52.519Z,-40
2022-11-11T05:01:52.509Z,-40
2022-11-11T05:02:52.512Z,-40
2022-11-11T05:03:52.510Z,-40
2022-11-11T05:04:52.480Z,-40
2022-11-11T05:05:52.468Z,-40
2022-11-11T05:06:52.466Z,-40
2022-11-11T05:07:52.464Z,-40
2022-11-11T05:08:52.464Z,-40
2022-11-11T05:09:52.425Z,-40
2022-11-11T05:10:52.417Z,-40
2022-11-11T05:11:52.411Z,-40
2022-11-11T05:12:52.392Z,-40
2022-11-11T05:13:52.377Z,-40
2022-11-11T05:14:52.370Z,-40
2022-11-11T05:15:52.365Z,-40
2022-11-11T05:16:52.402Z,-40
2022-11-11T05:17:52.372Z,-40
2022-11-11T05:18:52.331Z,-40
2022-11-11T05:19:52.314Z,-40
2022-11-11T05:20:52.343Z,-40
2022-11-11T05:21:52.304Z,-40
2022-11-11T05:22:52.287Z,-40
2022-11-11T05:23:52.274Z,-40
2022-11-11T05:24:52.260Z,-40
2022-11-11T05:25:52.262Z,-40
2022-11-11T05:26:52.247Z,-40
2022-11-11T05:27:52.233Z,-40
2022-11-11T05:28:52.226Z,-40
2022-11-11T05:29:52.220Z,-40
2022-11-11T05:30:52.227Z,-40
2022-11-11T05:31:52.190Z,-40
2022-11-11T05:32:52.182Z,-40
2022-11-11T05:33:52.180Z,-40
2022-11-11T05:34:52.156Z,-40
2022-11-11T05:35:52.149Z,-40
2022-11-11T05:36:52.147Z,-40
2022-11-11T05:37:52.139Z,-40
2022-11-11T05:38:52.117Z,-40
2022-11-11T05:39:52.105Z,-40
2022-11-11T05:40:52.109Z,-40
2022-11-11T05:41:52.096Z,-40
2022-11-11T05:42:52.070Z,-40
2022-11-11T05:43:52.058Z,-40
2022-11-11T05:44:52.060Z,-40
2022-11-11T05:45:52.048Z,-40
2022-11-11T05:46:52.039Z,-40
2022-11-11T05:47:52.012Z,-40
2022-11-11T05:48:51.998Z,-40
2022-11-11T05:49:52.017Z,-40
2022-11-11T05:50:51.988Z,-40
2022-11-11T05:51:51.984Z,-40
2022-11-11T05:52:51.969Z,-40
2022-11-11T05:53:51.949Z,-40
2022-11-11T05:54:51.944Z,-40
2022-11-11T05:55:51.932Z,-40
2022-11-11T05:56:51.916Z,-40
2022-11-11T05:57:51.903Z,-40
2022-11-11T05:58:51.894Z,-40
2022-11-11T05:59:51.889Z,-40
2022-11-11T06:00:51.878Z,-40
2022-11-11T06:01:51.861Z,-40
2022-11-11T06:02:51.954Z,-40
2022-11-11T06:03:51.842Z,-40
2022-11-11T06:04:51.835Z,-40
2022-11-11T06:05:51.824Z,-40
2022-11-11T06:06:51.817Z,-40
2022-11-11T06:07:51.834Z,-40
2022-11-11T06:08:51.813Z,-40
2022-11-11T06:09:51.775Z,-40
2022-11-11T06:10:51.766Z,-40
2022-11-11T06:11:51.751Z,-40
2022-11-11T06:12:51.746Z,-40
2022-11-11T06:13:51.742Z,-40
2022-11-11T06:14:51.728Z,-40
2022-11-11T06:15:51.709Z,-40
2022-11-11T06:16:51.708Z,-40
2022-11-11T06:17:51.689Z,-40
2022-11-11T06:18:51.693Z,-40
2022-11-11T06:19:51.669Z,-40
2022-11-11T06:20:51.661Z,-40
2022-11-11T06:21:51.642Z,-40
2022-11-11T06:22:51.632Z,-40
2022-11-11T06:23:51.624Z,-40
2022-11-11T06:24:51.623Z,-40
2022-11-11T06:25:51.648Z,-40
2022-11-11T06:26:51.610Z,-40
2022-11-11T06:27:51.609Z,-40
2022-11-11T06:28:51.572Z,-40
2022-11-11T06:29:51.603Z,-40
2022-11-11T06:30:51.576Z,-40
2022-11-11T06:31:51.568Z,-40
2022-11-11T06:32:51.559Z,-40
2022-11-11T06:33:51.512Z,-40
2022-11-11T06:34:51.512Z,-40
2022-11-11T06:35:51.495Z,-40
2022-11-11T06:36:51.488Z,-40
2022-11-11T06:37:51.480Z,-40
2022-11-11T06:38:51.461Z,-40
2022-11-11T06:39:51.446Z,-40
2022-11-11T06:40:51.440Z,-40
2022-11-11T06:41:51.427Z,-40
2022-11-11T06:42:51.422Z,-40
2022-11-11T06:43:51.432Z,-40
2022-11-11T06:44:51.401Z,-40
2022-11-11T06:45:51.389Z,-40
2022-11-11T06:46:51.373Z,-40
2022-11-11T06:47:51.366Z,-40
2022-11-11T06:48:51.380Z,-40
2022-11-11T06:49:51.516Z,-40
2022-11-11T06:50:52.380Z,-40
2022-11-11T06:51:51.331Z,-40
2022-11-11T06:52:51.352Z,-40
2022-11-11T06:53:51.339Z,-40
2022-11-11T06:54:51.806Z,-40
2022-11-11T06:55:51.419Z,-40
2022-11-11T06:56:52.278Z,-40
2022-11-11T06:57:51.253Z,-40
2022-11-11T06:58:51.241Z,-40
2022-11-11T06:59:51.365Z,-40
2022-11-11T07:00:51.264Z,-40
2022-11-11T07:01:51.214Z,-40
2022-11-11T07:02:51.226Z,-40
2022-11-11T07:03:51.250Z,-40
2022-11-11T07:04:51.200Z,-40
2022-11-11T07:05:51.191Z,-40
2022-11-11T07:06:51.305Z,-40
2022-11-11T07:07:51.149Z,-40
2022-11-11T07:08:51.157Z,-40
2022-11-11T07:09:51.128Z,-40
2022-11-11T07:10:51.231Z,-40
2022-11-11T07:11:51.415Z,-40
2022-11-11T07:12:52.232Z,-40
2022-11-11T07:13:51.224Z,-40
2022-11-11T07:14:51.090Z,-40
2022-11-11T07:15:51.066Z,-40
2022-11-11T07:16:51.084Z,-40
2022-11-11T07:17:51.072Z,-40
2022-11-11T07:18:51.182Z,-40
2022-11-11T07:19:51.166Z,-40
2022-11-11T07:20:52.795Z,-40
2022-11-11T07:21:54.785Z,-40
2022-11-11T07:22:51.130Z,-40
2022-11-11T07:23:51.010Z,-40
2022-11-11T07:24:51.007Z,-40
2022-11-11T07:25:50.994Z,-40
2022-11-11T07:26:52.332Z,-40
2022-11-11T07:27:51.063Z,-40
2022-11-11T07:28:51.134Z,-40
2022-11-11T07:29:50.937Z,-40
2022-11-11T07:30:51.456Z,-40
2022-11-11T07:31:50.958Z,-40
2022-11-11T07:32:51.069Z,-40
2022-11-11T07:33:52.152Z,-40
2022-11-11T07:34:50.955Z,-40
2022-11-11T07:35:52.024Z,-40
2022-11-11T07:37:05.881Z,-40
2022-11-11T07:37:51.341Z,-40
2022-11-11T07:38:50.849Z,-40
2022-11-11T07:39:52.046Z,-40
2022-11-11T07:41:00.796Z,-40
2022-11-11T07:42:06.056Z,-40
2022-11-11T07:42:52.156Z,-40
2022-11-11T07:43:50.963Z,-40
2022-11-11T07:44:50.874Z,-40
2022-11-11T07:45:52.069Z,-40
2022-11-11T07:46:53.067Z,-40
2022-11-11T07:47:51.730Z,-40
2022-11-11T07:48:50.724Z,-40
2022-11-11T07:49:50.738Z,-40
2022-11-11T07:50:51.077Z,-40
2022-11-11T07:51:52.948Z,-40
2022-11-11T07:52:52.705Z,-40
2022-11-11T07:53:50.854Z,-40
2022-11-11T07:54:50.711Z,-40
2022-11-11T07:55:50.756Z,-40
2022-11-11T07:56:51.673Z,-40
2022-11-11T07:57:50.731Z,-40
2022-11-11T07:58:51.614Z,-40
2022-11-11T07:59:50.599Z,-40
2022-11-11T08:00:50.788Z,-40
2022-11-11T08:01:50.578Z,-40
2022-11-11T08:02:50.596Z,-40
2022-11-11T08:03:50.627Z,-40
2022-11-11T08:04:50.556Z,-40
2022-11-11T08:05:50.541Z,-40
2022-11-11T08:06:50.541Z,-40
2022-11-11T08:07:50.527Z,-40
2022-11-11T08:08:50.525Z,-40
2022-11-11T08:09:51.495Z,-40
2022-11-11T08:10:50.487Z,-40
2022-11-11T08:11:50.504Z,-40
2022-11-11T08:12:50.661Z,-40
2022-11-11T08:13:50.643Z,-40
2022-11-11T08:14:50.443Z,-40
2022-11-11T08:15:50.424Z,-40
2022-11-11T08:16:50.424Z,-40
2022-11-11T08:17:50.432Z,-40
2022-11-11T08:18:50.389Z,-40
2022-11-11T08:19:50.381Z,-40
2022-11-11T08:20:50.377Z,-40
2022-11-11T08:21:50.380Z,-40
2022-11-11T08:22:50.602Z,-40
2022-11-11T08:24:50.379Z,-40
2022-11-11T08:25:50.327Z,-40
2022-11-11T08:26:50.563Z,-40
2022-11-11T08:27:51.306Z,-40
2022-11-11T08:28:50.303Z,-40
2022-11-11T08:29:50.427Z,-40
2022-11-11T08:30:51.318Z,-40
2022-11-11T08:34:46.983Z,15.97
2022-11-11T08:35:46.738Z,15.86
2022-11-11T08:36:46.719Z,15.76
2022-11-11T08:37:46.689Z,-40
2022-11-11T08:38:46.642Z,-40
2022-11-11T08:39:46.639Z,-40
2022-11-11T08:40:46.651Z,-40
2022-11-11T08:41:46.741Z,-40
2022-11-11T08:42:46.606Z,-40
2022-11-11T08:43:46.996Z,-40
2022-11-11T08:44:47.579Z,-40
2022-11-11T08:45:46.574Z,-40
2022-11-11T08:46:46.599Z,-40
2022-11-11T08:47:46.582Z,-40
2022-11-11T08:48:46.556Z,-40
2022-11-11T08:49:46.534Z,-40
2022-11-11T08:50:46.516Z,-40
2022-11-11T08:51:46.514Z,-40
2022-11-11T08:52:46.489Z,-40
2022-11-11T08:53:46.484Z,-40
2022-11-11T08:54:46.512Z,-40
2022-11-11T08:55:46.477Z,-40
2022-11-11T08:56:46.453Z,-40
2022-11-11T08:57:46.440Z,-40
2022-11-11T08:58:46.728Z,-40
2022-11-11T08:59:49.379Z,-40
2022-11-11T09:00:46.690Z,-40
2022-11-11T09:01:46.545Z,-40
2022-11-11T09:02:46.401Z,-40
2022-11-11T09:03:46.389Z,-40
2022-11-11T09:04:46.654Z,-40
2022-11-11T09:05:52.400Z,-40
2022-11-11T09:06:46.480Z,-40
2022-11-11T09:07:46.347Z,-40
2022-11-11T09:08:46.334Z,-40
2022-11-11T09:09:46.343Z,-40
2022-11-11T09:10:46.300Z,-40
2022-11-11T09:11:46.384Z,-40
2022-11-11T09:12:46.370Z,-40
2022-11-11T09:13:46.274Z,-40
2022-11-11T09:14:46.251Z,-40
2022-11-11T09:15:46.270Z,-40
2022-11-11T09:16:46.229Z,-40
2022-11-11T09:17:46.236Z,-40
2022-11-11T09:18:46.210Z,-40
2022-11-11T09:19:46.219Z,-40
2022-11-11T09:20:46.205Z,-40
2022-11-11T09:21:46.207Z,-40
2022-11-11T09:22:46.165Z,-40
2022-11-11T09:23:46.159Z,-40
2022-11-11T09:24:46.180Z,-40
2022-11-11T09:25:46.283Z,-40
2022-11-11T09:26:47.152Z,-40
2022-11-11T09:27:46.156Z,-40
2022-11-11T09:28:46.115Z,-40
2022-11-11T09:29:46.115Z,-40
2022-11-11T09:30:46.104Z,-40
2022-11-11T09:31:46.090Z,-40
2022-11-11T09:32:46.084Z,-40
2022-11-11T09:33:46.072Z,-40
2022-11-11T09:34:46.042Z,-40
2022-11-11T09:35:46.027Z,-40
2022-11-11T09:36:46.028Z,-40
2022-11-11T09:37:46.014Z,-40
2022-11-11T09:38:46.044Z,-40
2022-11-11T09:39:45.983Z,-40
2022-11-11T09:40:46.029Z,-40
2022-11-11T09:41:45.965Z,-40
2022-11-11T09:42:45.959Z,-40
2022-11-11T09:43:45.993Z,-40
2022-11-11T09:44:46.035Z,-40
2022-11-11T09:45:46.932Z,-40
2022-11-11T09:46:45.913Z,-40
2022-11-11T09:47:45.897Z,-40
2022-11-11T09:48:45.936Z,-40
2022-11-11T09:49:45.886Z,-40
2022-11-11T09:50:45.882Z,-40
2022-11-11T09:51:45.885Z,-40
2022-11-11T09:52:45.855Z,-40
2022-11-11T09:53:45.853Z,-40
2022-11-11T09:54:45.859Z,-40
2022-11-11T09:55:45.816Z,-40
2022-11-11T09:56:45.809Z,-40
2022-11-11T09:57:45.845Z,-40
2022-11-11T09:58:45.796Z,-40
2022-11-11T09:59:45.821Z,-40
2022-11-11T10:00:46.006Z,-40
2022-11-11T10:01:45.833Z,-40
2022-11-11T10:02:46.755Z,-40
2022-11-11T10:03:45.889Z,-40
2022-11-11T10:04:45.759Z,-40
2022-11-11T10:05:45.757Z,-40
2022-11-11T10:06:45.820Z,-40
2022-11-11T10:07:45.803Z,-40
2022-11-11T10:08:46.776Z,-40
2022-11-11T10:09:45.688Z,-40
2022-11-11T10:10:45.657Z,-40
2022-11-11T10:11:45.645Z,-40
2022-11-11T10:12:45.639Z,-40
2022-11-11T10:13:45.999Z,-40
2022-11-11T10:14:45.664Z,-40
2022-11-11T10:15:45.662Z,-40
2022-11-11T10:16:45.672Z,-40
2022-11-11T10:17:45.656Z,-40
2022-11-11T10:18:45.584Z,-40
2022-11-11T10:19:45.568Z,-40
2022-11-11T10:20:45.580Z,-40
2022-11-11T10:21:45.630Z,-40
2022-11-11T10:22:45.895Z,-40
2022-11-11T10:23:45.712Z,-40
2022-11-11T10:24:45.516Z,-40
2022-11-11T10:25:45.538Z,-40
2022-11-11T10:26:45.488Z,-40
2022-11-11T10:27:45.469Z,-40
2022-11-11T10:28:45.484Z,-40
2022-11-11T10:29:45.447Z,-40
2022-11-11T10:30:45.517Z,-40
2022-11-11T10:31:45.496Z,-40
2022-11-11T10:32:45.439Z,-40
2022-11-11T10:33:45.411Z,-40
2022-11-11T10:34:45.395Z,-40
2022-11-11T10:35:45.416Z,-40
2022-11-11T10:36:46.406Z,-40
2022-11-11T10:37:45.422Z,-40
2022-11-11T10:38:45.360Z,-40
2022-11-11T10:39:45.348Z,-40
2022-11-11T10:40:45.406Z,-40
2022-11-11T10:41:45.338Z,-40
2022-11-11T10:42:45.312Z,-40
2022-11-11T10:43:45.320Z,-40
2022-11-11T10:44:45.300Z,-40
2022-11-11T10:45:45.414Z,-40
2022-11-11T10:46:45.458Z,-40
2022-11-11T10:47:45.887Z,-40
2022-11-11T10:48:45.301Z,-40
2022-11-11T10:49:46.244Z,-40
2022-11-11T10:50:45.245Z,-40
2022-11-11T10:51:45.228Z,-40
2022-11-11T10:52:45.259Z,-40
2022-11-11T10:53:45.205Z,-40
2022-11-11T10:54:45.344Z,-40
2022-11-11T10:55:46.166Z,-40
2022-11-11T10:56:45.181Z,-40
2022-11-11T10:57:45.259Z,-40
2022-11-11T10:58:45.188Z,-40
2022-11-11T10:59:45.169Z,-40
2022-11-11T11:00:45.145Z,-40
2022-11-11T11:01:45.271Z,-40
2022-11-11T11:02:45.111Z,-40
2022-11-11T11:03:45.155Z,-40
2022-11-11T11:04:46.080Z,-40
2022-11-11T11:05:45.081Z,-40
2022-11-11T11:06:45.135Z,-40
2022-11-11T11:07:45.050Z,-40
2022-11-11T11:08:45.261Z,-40
2022-11-11T11:09:46.037Z,-40
2022-11-11T11:10:45.065Z,-40
2022-11-11T11:11:45.024Z,-40
2022-11-11T11:12:45.011Z,-40
2022-11-11T11:13:44.976Z,-40
2022-11-11T11:14:44.962Z,-40
2022-11-11T11:15:45.008Z,-40
2022-11-11T11:16:44.960Z,-40
2022-11-11T11:17:45.005Z,-40
2022-11-11T11:18:44.926Z,-40
2022-11-11T11:19:44.911Z,-40
2022-11-11T11:20:44.907Z,-40
2022-11-11T11:21:44.921Z,-40
2022-11-11T11:22:44.960Z,-40
2022-11-11T11:23:45.002Z,-40
2022-11-11T11:24:44.925Z,-40
2022-11-11T11:25:44.928Z,-40
2022-11-11T11:26:44.856Z,-40
2022-11-11T11:27:45.049Z,-40
2022-11-11T11:28:44.979Z,-40
2022-11-11T11:29:44.946Z,-40
2022-11-11T11:30:44.833Z,-40
2022-11-11T11:31:44.900Z,-40
2022-11-11T11:32:44.808Z,-40
2022-11-11T11:33:44.807Z,-40
2022-11-11T11:34:44.783Z,-40
2022-11-11T11:35:44.777Z,-40
2022-11-11T11:36:44.753Z,-40
2022-11-11T11:37:44.787Z,-40
2022-11-11T11:38:44.826Z,-40
2022-11-11T11:39:44.707Z,-40
2022-11-11T11:40:44.724Z,-40
2022-11-11T11:41:44.731Z,-40
2022-11-11T11:42:44.767Z,-40
2022-11-11T11:43:44.691Z,-40
2022-11-11T11:44:44.646Z,-40
2022-11-11T11:45:44.725Z,-40
2022-11-11T11:46:44.651Z,-40
2022-11-11T11:47:44.828Z,-40
2022-11-11T11:48:44.600Z,-40
2022-11-11T11:49:44.600Z,-40
2022-11-11T11:50:44.646Z,-40
2022-11-11T11:51:44.623Z,-40
2022-11-11T11:52:44.593Z,-40
2022-11-11T11:53:44.549Z,-40
2022-11-11T11:54:44.540Z,-40
2022-11-11T11:55:44.618Z,-40
2022-11-11T11:56:44.538Z,-40
2022-11-11T11:57:44.524Z,-40
2022-11-11T11:58:44.494Z,-40
2022-11-11T11:59:44.493Z,-40
2022-11-11T12:00:44.485Z,-40
2022-11-11T12:01:44.548Z,-40
2022-11-11T12:02:44.464Z,-40
2022-11-11T12:03:44.450Z,-40
2022-11-11T12:04:44.436Z,-40
2022-11-11T12:05:44.442Z,-40
2022-11-11T12:06:44.424Z,-40
2022-11-11T12:07:44.404Z,-40
2022-11-11T12:08:44.384Z,-40
2022-11-11T12:09:44.391Z,-40
2022-11-11T12:10:44.356Z,-40
2022-11-11T12:11:44.355Z,-40
2022-11-11T12:12:44.368Z,-40
2022-11-11T12:13:44.328Z,-40
2022-11-11T12:14:44.399Z,-40
2022-11-11T12:15:44.316Z,-40
2022-11-11T12:16:44.323Z,-40
2022-11-11T12:17:44.371Z,-40
2022-11-11T12:18:44.480Z,-40
2022-11-11T12:19:44.268Z,-40
2022-11-11T12:20:44.260Z,-40
2022-11-11T12:21:44.274Z,-40
2022-11-11T12:22:44.264Z,-40
2022-11-11T12:23:44.280Z,-40
2022-11-11T12:24:44.251Z,-40
2022-11-11T12:25:44.318Z,-40
2022-11-11T12:26:44.337Z,-40
2022-11-11T12:27:45.206Z,-40
2022-11-11T12:28:44.172Z,-40
2022-11-11T12:29:44.180Z,-40
2022-11-11T12:30:44.268Z,-40
2022-11-11T12:31:44.212Z,-40
2022-11-11T12:32:44.183Z,-40
2022-11-11T12:33:44.140Z,-40
2022-11-11T12:34:44.145Z,-40
2022-11-11T12:35:44.097Z,-40
2022-11-11T12:36:44.114Z,-40
2022-11-11T12:37:44.198Z,-40
2022-11-11T12:38:44.085Z,-40
2022-11-11T12:39:44.080Z,-40
2022-11-11T12:40:44.083Z,-40
2022-11-11T12:41:44.038Z,-40
2022-11-11T12:42:44.068Z,-40
2022-11-11T12:43:44.004Z,-40
2022-11-11T12:44:43.992Z,-40
2022-11-11T12:45:44.001Z,-40
2022-11-11T12:46:43.992Z,-40
2022-11-11T12:47:43.972Z,-40
2022-11-11T12:48:43.991Z,-40
2022-11-11T12:49:43.963Z,-40
2022-11-11T12:50:44.001Z,-40
2022-11-11T12:51:43.923Z,-40
2022-11-11T12:52:43.912Z,-40
2022-11-11T12:53:44.126Z,-40
2022-11-11T12:54:43.963Z,-40
2022-11-11T12:55:44.139Z,-40
2022-11-11T12:56:43.902Z,-40
2022-11-11T12:57:43.914Z,-40
2022-11-11T12:58:43.889Z,-40
2022-11-11T12:59:44.060Z,-40
2022-11-11T13:00:43.858Z,-40
2022-11-11T13:01:43.824Z,-40
2022-11-11T13:02:43.827Z,-40
2022-11-11T13:03:43.862Z,-40
2022-11-11T13:04:43.796Z,-40
2022-11-11T13:05:43.802Z,-40
2022-11-11T13:06:43.764Z,-40
2022-11-11T13:07:43.790Z,-40
2022-11-11T13:08:43.741Z,-40
2022-11-11T13:09:43.742Z,-40
2022-11-11T13:10:43.743Z,-40
2022-11-11T13:11:43.893Z,-40
2022-11-11T13:12:43.715Z,-40
2022-11-11T13:13:43.706Z,-40
2022-11-11T13:14:43.748Z,-40
2022-11-11T13:15:44.714Z,-40
2022-11-11T13:16:43.656Z,-40
2022-11-11T13:17:43.675Z,-40
2022-11-11T13:18:43.639Z,-40
2022-11-11T13:19:43.621Z,-40
2022-11-11T13:20:43.672Z,-40
2022-11-11T13:21:43.615Z,-40
2022-11-11T13:22:43.657Z,-40
2022-11-11T13:23:43.616Z,-40
2022-11-11T13:24:44.576Z,-40
2022-11-11T13:25:43.623Z,-40
2022-11-11T13:26:43.656Z,-40
2022-11-11T13:27:43.641Z,-40
2022-11-11T13:28:43.622Z,-40
2022-11-11T13:29:43.615Z,-40
2022-11-11T13:30:43.554Z,-40
2022-11-11T13:31:43.581Z,-40
2022-11-11T13:32:43.485Z,-40
2022-11-11T13:33:43.500Z,-40
2022-11-11T13:34:43.455Z,-40
2022-11-11T13:35:43.458Z,-40
2022-11-11T13:36:43.440Z,-40
2022-11-11T13:37:43.429Z,-40
2022-11-11T13:38:43.453Z,-40
2022-11-11T13:39:43.461Z,-40
2022-11-11T13:40:43.397Z,-40
2022-11-11T13:41:43.386Z,-40
2022-11-11T13:42:43.391Z,-40
2022-11-11T13:43:43.384Z,-40
2022-11-11T13:44:43.351Z,-40
2022-11-11T13:45:43.429Z,-40
2022-11-11T13:46:43.339Z,-40